KFXY

Forest City Municipal Airport

Forest City, Iowa, USA
METAR KFXY 242115Z AUTO 20016G21KT 10SM SCT047 26/15 A2982 RMK AO2
Observed Flight Rules
Sep-24 @ 21:15 UTC (19 minutes ago) Visual Flight Rules
Wind Visibility Clouds
200° at 16 knots
 Gusting to 21 knots
10 miles
  • Scattered at 4,700' AGL
Temperatures Readings
Current 26°C / 79°F
Dewpoint 15°C / 59°F
Humidity 51%
Altimeter 29.82" Hg
Pressure 1010 hPa
Elevation 375
METAR KFXY 242115Z AUTO 20016G21KT 10SM SCT047 26/15 A2982 RMK AO2
Observed Flight Rules
Sep-24 @ 21:15 UTC
(19 minutes ago)
VFR
Wind Visibility
200° at 16 knots
 Gusting to 21 knots
10 miles
Clouds
  • Scattered at 4,700' AGL
Temperature Dewpoint
26°C / 79°F 15°C / 59°F
Humidity Altimeter Pressure
51% 29.82" Hg 1010 hPa